sensor_id;sensor_type;location;lat;lon;timestamp;temperature;humidity
79711;DHT22;69465;51.630;6.570;2023-06-14T00:01:30;19.10;28.30
79711;DHT22;69465;51.630;6.570;2023-06-14T00:03:57;19.20;28.00
79711;DHT22;69465;51.630;6.570;2023-06-14T00:06:24;19.30;28.10
79711;DHT22;69465;51.630;6.570;2023-06-14T00:08:50;19.30;27.80
79711;DHT22;69465;51.630;6.570;2023-06-14T00:11:17;19.40;27.60
79711;DHT22;69465;51.630;6.570;2023-06-14T00:13:44;19.40;27.60
79711;DHT22;69465;51.630;6.570;2023-06-14T00:16:11;19.40;27.60
79711;DHT22;69465;51.630;6.570;2023-06-14T00:18:38;19.40;27.80
79711;DHT22;69465;51.630;6.570;2023-06-14T00:21:05;19.40;27.80
79711;DHT22;69465;51.630;6.570;2023-06-14T00:23:32;19.40;28.00
79711;DHT22;69465;51.630;6.570;2023-06-14T00:25:58;19.40;28.00
79711;DHT22;69465;51.630;6.570;2023-06-14T00:28:25;19.40;28.00
79711;DHT22;69465;51.630;6.570;2023-06-14T00:30:52;19.40;28.20
79711;DHT22;69465;51.630;6.570;2023-06-14T00:33:18;19.30;28.00
79711;DHT22;69465;51.630;6.570;2023-06-14T00:35:45;19.30;28.10
79711;DHT22;69465;51.630;6.570;2023-06-14T00:38:12;19.30;28.20
79711;DHT22;69465;51.630;6.570;2023-06-14T00:40:39;19.30;28.20
79711;DHT22;69465;51.630;6.570;2023-06-14T00:43:06;19.20;28.30
79711;DHT22;69465;51.630;6.570;2023-06-14T00:45:32;19.20;28.20
79711;DHT22;69465;51.630;6.570;2023-06-14T00:48:00;19.20;28.40
79711;DHT22;69465;51.630;6.570;2023-06-14T00:50:28;19.20;28.50
79711;DHT22;69465;51.630;6.570;2023-06-14T00:52:56;19.20;28.30
79711;DHT22;69465;51.630;6.570;2023-06-14T00:55:23;19.10;28.40
79711;DHT22;69465;51.630;6.570;2023-06-14T00:57:50;19.10;28.70
79711;DHT22;69465;51.630;6.570;2023-06-14T01:00:17;19.00;28.40
79711;DHT22;69465;51.630;6.570;2023-06-14T01:02:44;19.00;28.50
79711;DHT22;69465;51.630;6.570;2023-06-14T01:05:11;19.00;28.60
79711;DHT22;69465;51.630;6.570;2023-06-14T01:07:55;18.90;28.50
79711;DHT22;69465;51.630;6.570;2023-06-14T01:13:19;18.90;28.90
79711;DHT22;69465;51.630;6.570;2023-06-14T01:15:46;18.80;28.90
79711;DHT22;69465;51.630;6.570;2023-06-14T01:18:14;18.80;28.90
79711;DHT22;69465;51.630;6.570;2023-06-14T01:20:41;18.70;28.90
79711;DHT22;69465;51.630;6.570;2023-06-14T01:23:07;18.70;28.90
79711;DHT22;69465;51.630;6.570;2023-06-14T01:25:34;18.70;28.80
79711;DHT22;69465;51.630;6.570;2023-06-14T01:28:03;18.60;28.60
79711;DHT22;69465;51.630;6.570;2023-06-14T01:30:31;18.60;28.80
79711;DHT22;69465;51.630;6.570;2023-06-14T01:32:58;18.60;28.70
79711;DHT22;69465;51.630;6.570;2023-06-14T01:35:25;18.60;28.70
79711;DHT22;69465;51.630;6.570;2023-06-14T01:37:53;18.60;28.80
79711;DHT22;69465;51.630;6.570;2023-06-14T01:40:21;18.50;28.70
79711;DHT22;69465;51.630;6.570;2023-06-14T01:42:49;18.50;28.70
79711;DHT22;69465;51.630;6.570;2023-06-14T01:45:17;18.50;28.70
79711;DHT22;69465;51.630;6.570;2023-06-14T01:47:45;18.50;28.70
79711;DHT22;69465;51.630;6.570;2023-06-14T01:50:12;18.50;28.70
79711;DHT22;69465;51.630;6.570;2023-06-14T01:52:40;18.50;28.70
79711;DHT22;69465;51.630;6.570;2023-06-14T01:55:07;18.50;28.70
79711;DHT22;69465;51.630;6.570;2023-06-14T01:57:34;18.40;28.60
79711;DHT22;69465;51.630;6.570;2023-06-14T02:00:00;18.40;28.60
79711;DHT22;69465;51.630;6.570;2023-06-14T02:02:27;18.40;28.90
79711;DHT22;69465;51.630;6.570;2023-06-14T02:04:53;18.30;29.00
79711;DHT22;69465;51.630;6.570;2023-06-14T02:07:20;18.30;29.10
79711;DHT22;69465;51.630;6.570;2023-06-14T02:09:47;18.30;29.40
79711;DHT22;69465;51.630;6.570;2023-06-14T02:12:14;18.30;29.20
79711;DHT22;69465;51.630;6.570;2023-06-14T02:14:40;18.20;29.30
79711;DHT22;69465;51.630;6.570;2023-06-14T02:17:07;18.20;29.20
79711;DHT22;69465;51.630;6.570;2023-06-14T02:19:34;18.10;29.20
79711;DHT22;69465;51.630;6.570;2023-06-14T02:22:00;18.10;29.10
79711;DHT22;69465;51.630;6.570;2023-06-14T02:24:27;18.10;29.50
79711;DHT22;69465;51.630;6.570;2023-06-14T02:26:54;18.10;29.50
79711;DHT22;69465;51.630;6.570;2023-06-14T02:29:20;18.00;29.60
79711;DHT22;69465;51.630;6.570;2023-06-14T02:31:47;18.00;29.70
79711;DHT22;69465;51.630;6.570;2023-06-14T02:34:14;17.90;29.80
79711;DHT22;69465;51.630;6.570;2023-06-14T02:36:41;17.90;29.90
79711;DHT22;69465;51.630;6.570;2023-06-14T02:39:09;17.90;29.90
79711;DHT22;69465;51.630;6.570;2023-06-14T02:41:35;17.90;30.00
79711;DHT22;69465;51.630;6.570;2023-06-14T02:44:02;17.80;29.80
79711;DHT22;69465;51.630;6.570;2023-06-14T02:46:29;17.80;30.50
79711;DHT22;69465;51.630;6.570;2023-06-14T02:48:56;17.80;30.40
79711;DHT22;69465;51.630;6.570;2023-06-14T02:51:23;17.80;30.00
79711;DHT22;69465;51.630;6.570;2023-06-14T02:53:50;17.80;31.30
79711;DHT22;69465;51.630;6.570;2023-06-14T02:56:17;17.70;30.90
79711;DHT22;69465;51.630;6.570;2023-06-14T02:58:43;17.70;30.00
79711;DHT22;69465;51.630;6.570;2023-06-14T03:01:11;17.70;32.00
79711;DHT22;69465;51.630;6.570;2023-06-14T03:03:37;17.60;32.60
79711;DHT22;69465;51.630;6.570;2023-06-14T03:06:04;17.60;32.00
79711;DHT22;69465;51.630;6.570;2023-06-14T03:08:31;17.60;32.50
79711;DHT22;69465;51.630;6.570;2023-06-14T03:10:58;17.60;32.50
79711;DHT22;69465;51.630;6.570;2023-06-14T03:13:25;17.50;32.10
79711;DHT22;69465;51.630;6.570;2023-06-14T03:15:52;17.40;31.70
79711;DHT22;69465;51.630;6.570;2023-06-14T03:18:19;17.50;32.80
79711;DHT22;69465;51.630;6.570;2023-06-14T03:20:45;17.40;32.30
79711;DHT22;69465;51.630;6.570;2023-06-14T03:23:12;17.40;33.90
79711;DHT22;69465;51.630;6.570;2023-06-14T03:25:39;17.40;32.30
79711;DHT22;69465;51.630;6.570;2023-06-14T03:28:05;17.30;32.20
79711;DHT22;69465;51.630;6.570;2023-06-14T03:30:32;17.30;32.20
79711;DHT22;69465;51.630;6.570;2023-06-14T03:32:59;17.30;32.30
79711;DHT22;69465;51.630;6.570;2023-06-14T03:35:27;17.30;32.20
79711;DHT22;69465;51.630;6.570;2023-06-14T03:37:54;17.30;32.90
79711;DHT22;69465;51.630;6.570;2023-06-14T03:40:21;17.30;32.30
79711;DHT22;69465;51.630;6.570;2023-06-14T03:42:48;17.30;32.20
79711;DHT22;69465;51.630;6.570;2023-06-14T03:45:15;17.30;32.20
79711;DHT22;69465;51.630;6.570;2023-06-14T03:47:41;17.30;32.20
79711;DHT22;69465;51.630;6.570;2023-06-14T03:50:09;17.30;32.20
79711;DHT22;69465;51.630;6.570;2023-06-14T03:52:35;17.30;32.20
79711;DHT22;69465;51.630;6.570;2023-06-14T03:55:02;17.30;32.20
79711;DHT22;69465;51.630;6.570;2023-06-14T03:57:32;17.30;32.20
79711;DHT22;69465;51.630;6.570;2023-06-14T03:59:59;17.30;33.10
79711;DHT22;69465;51.630;6.570;2023-06-14T04:02:25;17.30;32.50
79711;DHT22;69465;51.630;6.570;2023-06-14T04:04:52;17.30;32.70
79711;DHT22;69465;51.630;6.570;2023-06-14T04:07:19;17.30;32.30
79711;DHT22;69465;51.630;6.570;2023-06-14T04:09:46;17.30;32.20
79711;DHT22;69465;51.630;6.570;2023-06-14T04:12:13;17.30;32.20
79711;DHT22;69465;51.630;6.570;2023-06-14T04:14:40;17.30;32.20
79711;DHT22;69465;51.630;6.570;2023-06-14T04:17:07;17.40;32.40
79711;DHT22;69465;51.630;6.570;2023-06-14T04:19:33;17.40;32.30
79711;DHT22;69465;51.630;6.570;2023-06-14T04:22:00;17.40;32.40
79711;DHT22;69465;51.630;6.570;2023-06-14T04:24:27;17.40;33.90
79711;DHT22;69465;51.630;6.570;2023-06-14T04:26:54;17.50;32.50
79711;DHT22;69465;51.630;6.570;2023-06-14T04:29:21;17.50;32.40
79711;DHT22;69465;51.630;6.570;2023-06-14T04:31:48;17.60;32.50
79711;DHT22;69465;51.630;6.570;2023-06-14T04:34:15;17.60;32.60
79711;DHT22;69465;51.630;6.570;2023-06-14T04:36:42;17.70;33.20
79711;DHT22;69465;51.630;6.570;2023-06-14T04:39:09;17.70;32.50
79711;DHT22;69465;51.630;6.570;2023-06-14T04:41:36;17.80;32.60
79711;DHT22;69465;51.630;6.570;2023-06-14T04:44:03;17.90;32.20
79711;DHT22;69465;51.630;6.570;2023-06-14T04:46:30;17.90;31.70
79711;DHT22;69465;51.630;6.570;2023-06-14T04:48:57;18.00;32.20
79711;DHT22;69465;51.630;6.570;2023-06-14T04:51:24;18.10;31.50
79711;DHT22;69465;51.630;6.570;2023-06-14T04:53:50;18.20;31.20
79711;DHT22;69465;51.630;6.570;2023-06-14T04:56:17;18.30;31.50
79711;DHT22;69465;51.630;6.570;2023-06-14T04:58:43;18.40;31.10
79711;DHT22;69465;51.630;6.570;2023-06-14T05:01:10;18.50;30.80
79711;DHT22;69465;51.630;6.570;2023-06-14T05:03:36;18.60;30.30
79711;DHT22;69465;51.630;6.570;2023-06-14T05:06:03;18.80;30.50
79711;DHT22;69465;51.630;6.570;2023-06-14T05:08:30;19.10;30.10
79711;DHT22;69465;51.630;6.570;2023-06-14T05:10:56;19.70;29.50
79711;DHT22;69465;51.630;6.570;2023-06-14T05:13:23;20.50;28.50
79711;DHT22;69465;51.630;6.570;2023-06-14T05:15:50;21.10;27.30
79711;DHT22;69465;51.630;6.570;2023-06-14T05:18:17;21.70;26.90
79711;DHT22;69465;51.630;6.570;2023-06-14T05:20:44;22.20;25.40
79711;DHT22;69465;51.630;6.570;2023-06-14T05:23:11;22.70;24.90
79711;DHT22;69465;51.630;6.570;2023-06-14T05:25:38;23.10;24.20
79711;DHT22;69465;51.630;6.570;2023-06-14T05:28:04;23.60;24.20
79711;DHT22;69465;51.630;6.570;2023-06-14T05:30:31;24.00;23.60
79711;DHT22;69465;51.630;6.570;2023-06-14T05:32:58;24.20;23.10
79711;DHT22;69465;51.630;6.570;2023-06-14T05:35:25;24.50;22.80
79711;DHT22;69465;51.630;6.570;2023-06-14T05:37:52;24.80;22.60
79711;DHT22;69465;51.630;6.570;2023-06-14T05:40:18;25.20;22.30
79711;DHT22;69465;51.630;6.570;2023-06-14T05:42:46;25.80;21.60
79711;DHT22;69465;51.630;6.570;2023-06-14T05:45:12;26.00;21.00
79711;DHT22;69465;51.630;6.570;2023-06-14T05:47:39;26.20;21.30
79711;DHT22;69465;51.630;6.570;2023-06-14T05:50:06;26.40;21.10
79711;DHT22;69465;51.630;6.570;2023-06-14T05:52:34;26.50;20.80
79711;DHT22;69465;51.630;6.570;2023-06-14T05:55:01;26.40;20.30
79711;DHT22;69465;51.630;6.570;2023-06-14T05:57:27;26.50;20.60
79711;DHT22;69465;51.630;6.570;2023-06-14T05:59:55;27.10;20.00
79711;DHT22;69465;51.630;6.570;2023-06-14T06:02:21;27.50;19.70
79711;DHT22;69465;51.630;6.570;2023-06-14T06:04:48;27.60;19.30
79711;DHT22;69465;51.630;6.570;2023-06-14T06:07:14;27.30;19.20
79711;DHT22;69465;51.630;6.570;2023-06-14T06:09:41;27.40;19.10
79711;DHT22;69465;51.630;6.570;2023-06-14T06:12:07;27.10;19.30
79711;DHT22;69465;51.630;6.570;2023-06-14T06:14:34;27.10;20.30
79711;DHT22;69465;51.630;6.570;2023-06-14T06:17:01;27.50;19.30
79711;DHT22;69465;51.630;6.570;2023-06-14T06:19:27;28.00;18.40
79711;DHT22;69465;51.630;6.570;2023-06-14T06:21:54;28.70;18.70
79711;DHT22;69465;51.630;6.570;2023-06-14T06:24:21;29.70;18.00
79711;DHT22;69465;51.630;6.570;2023-06-14T06:26:47;30.50;16.40
79711;DHT22;69465;51.630;6.570;2023-06-14T06:29:14;31.00;15.70
79711;DHT22;69465;51.630;6.570;2023-06-14T06:31:40;31.50;15.30
79711;DHT22;69465;51.630;6.570;2023-06-14T06:34:07;31.50;15.10
79711;DHT22;69465;51.630;6.570;2023-06-14T06:36:34;31.70;15.60
79711;DHT22;69465;51.630;6.570;2023-06-14T06:39:00;31.80;14.60
79711;DHT22;69465;51.630;6.570;2023-06-14T06:41:27;32.10;15.50
79711;DHT22;69465;51.630;6.570;2023-06-14T06:43:54;32.30;14.00
79711;DHT22;69465;51.630;6.570;2023-06-14T06:46:21;32.50;14.40
79711;DHT22;69465;51.630;6.570;2023-06-14T06:48:47;32.80;13.80
79711;DHT22;69465;51.630;6.570;2023-06-14T06:51:14;33.00;13.10
79711;DHT22;69465;51.630;6.570;2023-06-14T06:53:42;32.90;13.10
79711;DHT22;69465;51.630;6.570;2023-06-14T06:56:15;32.90;13.60
79711;DHT22;69465;51.630;6.570;2023-06-14T06:58:42;33.20;13.20
79711;DHT22;69465;51.630;6.570;2023-06-14T07:01:08;33.00;13.00
79711;DHT22;69465;51.630;6.570;2023-06-14T07:03:35;33.10;12.60
79711;DHT22;69465;51.630;6.570;2023-06-14T07:06:01;32.80;12.40
79711;DHT22;69465;51.630;6.570;2023-06-14T07:08:28;33.00;12.50
79711;DHT22;69465;51.630;6.570;2023-06-14T07:10:55;32.60;12.80
79711;DHT22;69465;51.630;6.570;2023-06-14T07:13:22;32.70;12.40
79711;DHT22;69465;51.630;6.570;2023-06-14T07:15:48;32.90;12.60
79711;DHT22;69465;51.630;6.570;2023-06-14T07:18:15;33.30;13.10
79711;DHT22;69465;51.630;6.570;2023-06-14T07:20:42;33.80;12.10
79711;DHT22;69465;51.630;6.570;2023-06-14T07:23:09;33.70;11.90
79711;DHT22;69465;51.630;6.570;2023-06-14T07:25:35;33.40;12.20
79711;DHT22;69465;51.630;6.570;2023-06-14T07:28:02;33.20;12.60
79711;DHT22;69465;51.630;6.570;2023-06-14T07:30:28;33.10;12.60
79711;DHT22;69465;51.630;6.570;2023-06-14T07:32:56;33.20;12.30
79711;DHT22;69465;51.630;6.570;2023-06-14T07:35:22;33.00;12.30
79711;DHT22;69465;51.630;6.570;2023-06-14T07:37:49;33.10;12.10
79711;DHT22;69465;51.630;6.570;2023-06-14T07:40:16;33.30;12.40
79711;DHT22;69465;51.630;6.570;2023-06-14T07:42:43;33.50;11.60
79711;DHT22;69465;51.630;6.570;2023-06-14T07:45:09;32.90;11.90
79711;DHT22;69465;51.630;6.570;2023-06-14T07:47:36;32.70;12.40
79711;DHT22;69465;51.630;6.570;2023-06-14T07:50:02;32.80;12.20
79711;DHT22;69465;51.630;6.570;2023-06-14T07:52:29;32.80;11.80
79711;DHT22;69465;51.630;6.570;2023-06-14T07:54:56;32.80;12.20
79711;DHT22;69465;51.630;6.570;2023-06-14T07:57:22;32.60;12.30
79711;DHT22;69465;51.630;6.570;2023-06-14T07:59:49;32.40;12.50
79711;DHT22;69465;51.630;6.570;2023-06-14T08:02:16;32.70;12.60
79711;DHT22;69465;51.630;6.570;2023-06-14T08:04:42;33.10;12.30
79711;DHT22;69465;51.630;6.570;2023-06-14T08:07:09;33.60;12.90
79711;DHT22;69465;51.630;6.570;2023-06-14T08:09:36;34.40;12.30
79711;DHT22;69465;51.630;6.570;2023-06-14T08:12:03;35.00;11.20
79711;DHT22;69465;51.630;6.570;2023-06-14T08:14:30;34.90;10.70
79711;DHT22;69465;51.630;6.570;2023-06-14T08:16:56;34.80;10.90
79711;DHT22;69465;51.630;6.570;2023-06-14T08:19:23;34.20;11.10
79711;DHT22;69465;51.630;6.570;2023-06-14T08:21:50;34.20;11.60
79711;DHT22;69465;51.630;6.570;2023-06-14T08:24:16;33.90;11.00
79711;DHT22;69465;51.630;6.570;2023-06-14T08:26:43;33.60;12.40
79711;DHT22;69465;51.630;6.570;2023-06-14T08:29:10;33.70;12.00
79711;DHT22;69465;51.630;6.570;2023-06-14T08:31:36;33.40;11.90
79711;DHT22;69465;51.630;6.570;2023-06-14T08:34:03;33.60;11.30
79711;DHT22;69465;51.630;6.570;2023-06-14T08:36:32;33.90;12.00
79711;DHT22;69465;51.630;6.570;2023-06-14T08:38:59;34.50;11.70
79711;DHT22;69465;51.630;6.570;2023-06-14T08:41:27;35.00;11.90
79711;DHT22;69465;51.630;6.570;2023-06-14T08:43:55;35.30;10.90
79711;DHT22;69465;51.630;6.570;2023-06-14T08:46:25;35.50;10.30
79711;DHT22;69465;51.630;6.570;2023-06-14T08:48:53;35.20;10.20
79711;DHT22;69465;51.630;6.570;2023-06-14T08:51:22;34.90;10.50
79711;DHT22;69465;51.630;6.570;2023-06-14T08:53:53;34.10;11.70
79711;DHT22;69465;51.630;6.570;2023-06-14T08:56:20;33.90;11.30
79711;DHT22;69465;51.630;6.570;2023-06-14T08:58:49;34.20;11.50
79711;DHT22;69465;51.630;6.570;2023-06-14T09:01:16;34.00;11.00
79711;DHT22;69465;51.630;6.570;2023-06-14T09:03:43;34.10;11.40
79711;DHT22;69465;51.630;6.570;2023-06-14T09:06:09;34.30;10.90
79711;DHT22;69465;51.630;6.570;2023-06-14T09:08:36;34.40;11.30
79711;DHT22;69465;51.630;6.570;2023-06-14T09:11:03;34.20;11.20
79711;DHT22;69465;51.630;6.570;2023-06-14T09:13:30;34.20;11.20
79711;DHT22;69465;51.630;6.570;2023-06-14T09:15:57;34.10;11.10
79711;DHT22;69465;51.630;6.570;2023-06-14T09:18:35;33.90;10.70
79711;DHT22;69465;51.630;6.570;2023-06-14T09:21:01;33.70;10.90
79711;DHT22;69465;51.630;6.570;2023-06-14T09:23:28;33.40;11.30
79711;DHT22;69465;51.630;6.570;2023-06-14T09:25:57;33.10;11.30
79711;DHT22;69465;51.630;6.570;2023-06-14T09:28:28;32.90;11.70
79711;DHT22;69465;51.630;6.570;2023-06-14T09:30:55;33.00;13.60
79711;DHT22;69465;51.630;6.570;2023-06-14T09:33:21;33.20;12.30
79711;DHT22;69465;51.630;6.570;2023-06-14T09:35:51;32.80;12.00
79711;DHT22;69465;51.630;6.570;2023-06-14T09:38:18;32.70;13.30
79711;DHT22;69465;51.630;6.570;2023-06-14T09:40:45;32.50;12.90
79711;DHT22;69465;51.630;6.570;2023-06-14T09:43:11;32.40;11.80
79711;DHT22;69465;51.630;6.570;2023-06-14T09:45:39;32.30;12.20
79711;DHT22;69465;51.630;6.570;2023-06-14T09:48:07;32.30;12.20
79711;DHT22;69465;51.630;6.570;2023-06-14T09:50:34;32.40;12.20
79711;DHT22;69465;51.630;6.570;2023-06-14T09:53:10;32.50;12.30
79711;DHT22;69465;51.630;6.570;2023-06-14T09:55:40;32.90;12.50
79711;DHT22;69465;51.630;6.570;2023-06-14T09:58:09;33.20;11.70
79711;DHT22;69465;51.630;6.570;2023-06-14T10:00:36;33.50;11.30
79711;DHT22;69465;51.630;6.570;2023-06-14T10:03:11;33.50;10.80
79711;DHT22;69465;51.630;6.570;2023-06-14T10:05:38;33.40;11.40
79711;DHT22;69465;51.630;6.570;2023-06-14T10:08:10;33.10;11.30
79711;DHT22;69465;51.630;6.570;2023-06-14T10:10:39;33.00;11.30
79711;DHT22;69465;51.630;6.570;2023-06-14T10:13:07;32.80;11.90
79711;DHT22;69465;51.630;6.570;2023-06-14T10:15:46;32.30;11.30
79711;DHT22;69465;51.630;6.570;2023-06-14T10:18:35;32.10;12.00
79711;DHT22;69465;51.630;6.570;2023-06-14T10:21:13;32.00;13.60
79711;DHT22;69465;51.630;6.570;2023-06-14T10:23:43;32.30;12.20
79711;DHT22;69465;51.630;6.570;2023-06-14T10:26:22;32.60;12.30
79711;DHT22;69465;51.630;6.570;2023-06-14T10:29:00;32.50;11.50
79711;DHT22;69465;51.630;6.570;2023-06-14T10:31:41;32.20;12.20
79711;DHT22;69465;51.630;6.570;2023-06-14T10:34:09;32.20;11.00
79711;DHT22;69465;51.630;6.570;2023-06-14T10:36:37;32.00;11.80
79711;DHT22;69465;51.630;6.570;2023-06-14T10:39:14;31.80;11.00
79711;DHT22;69465;51.630;6.570;2023-06-14T10:41:41;31.60;11.30
79711;DHT22;69465;51.630;6.570;2023-06-14T10:46:46;31.70;11.90
79711;DHT22;69465;51.630;6.570;2023-06-14T10:49:16;31.90;11.60
79711;DHT22;69465;51.630;6.570;2023-06-14T10:51:43;31.80;12.50
79711;DHT22;69465;51.630;6.570;2023-06-14T10:54:12;31.90;12.00
79711;DHT22;69465;51.630;6.570;2023-06-14T10:56:52;31.70;11.40
79711;DHT22;69465;51.630;6.570;2023-06-14T10:59:20;31.00;11.70
79711;DHT22;69465;51.630;6.570;2023-06-14T11:05:03;30.60;12.80
79711;DHT22;69465;51.630;6.570;2023-06-14T11:12:47;30.00;12.90
79711;DHT22;69465;51.630;6.570;2023-06-14T11:15:15;29.50;13.60
79711;DHT22;69465;51.630;6.570;2023-06-14T11:17:51;29.20;13.70
79711;DHT22;69465;51.630;6.570;2023-06-14T11:20:19;29.20;14.80
79711;DHT22;69465;51.630;6.570;2023-06-14T11:22:49;29.10;14.30
79711;DHT22;69465;51.630;6.570;2023-06-14T11:25:15;28.90;14.40
79711;DHT22;69465;51.630;6.570;2023-06-14T11:27:42;28.70;14.60
79711;DHT22;69465;51.630;6.570;2023-06-14T11:30:10;28.50;14.50
79711;DHT22;69465;51.630;6.570;2023-06-14T11:32:38;28.50;15.00
79711;DHT22;69465;51.630;6.570;2023-06-14T11:35:05;28.10;14.70
79711;DHT22;69465;51.630;6.570;2023-06-14T11:37:32;27.70;16.00
79711;DHT22;69465;51.630;6.570;2023-06-14T11:40:00;27.30;16.20
79711;DHT22;69465;51.630;6.570;2023-06-14T11:42:27;27.10;16.30
79711;DHT22;69465;51.630;6.570;2023-06-14T11:44:55;26.90;16.70
79711;DHT22;69465;51.630;6.570;2023-06-14T11:47:38;26.80;17.80
79711;DHT22;69465;51.630;6.570;2023-06-14T11:50:07;26.80;17.80
79711;DHT22;69465;51.630;6.570;2023-06-14T11:52:37;26.90;17.70
79711;DHT22;69465;51.630;6.570;2023-06-14T11:55:04;26.90;17.00
79711;DHT22;69465;51.630;6.570;2023-06-14T11:57:34;26.80;17.80
79711;DHT22;69465;51.630;6.570;2023-06-14T12:00:03;26.80;17.20
79711;DHT22;69465;51.630;6.570;2023-06-14T12:02:31;26.90;16.90
79711;DHT22;69465;51.630;6.570;2023-06-14T12:05:04;26.80;17.20
79711;DHT22;69465;51.630;6.570;2023-06-14T12:07:31;26.60;17.70
79711;DHT22;69465;51.630;6.570;2023-06-14T12:12:25;26.60;17.70
79711;DHT22;69465;51.630;6.570;2023-06-14T12:14:53;26.50;17.70
79711;DHT22;69465;51.630;6.570;2023-06-14T12:17:20;26.50;17.70
79711;DHT22;69465;51.630;6.570;2023-06-14T12:19:48;26.60;18.10
79711;DHT22;69465;51.630;6.570;2023-06-14T12:22:15;26.50;18.10
79711;DHT22;69465;51.630;6.570;2023-06-14T12:24:45;26.40;17.60
79711;DHT22;69465;51.630;6.570;2023-06-14T12:27:12;26.40;18.10
79711;DHT22;69465;51.630;6.570;2023-06-14T12:29:39;26.30;18.30
79711;DHT22;69465;51.630;6.570;2023-06-14T12:32:06;26.30;18.80
79711;DHT22;69465;51.630;6.570;2023-06-14T12:34:33;26.30;19.50
79711;DHT22;69465;51.630;6.570;2023-06-14T12:36:59;26.30;20.20
79711;DHT22;69465;51.630;6.570;2023-06-14T12:39:26;26.30;18.80
79711;DHT22;69465;51.630;6.570;2023-06-14T12:41:53;26.30;18.90
79711;DHT22;69465;51.630;6.570;2023-06-14T12:44:19;26.30;19.30
79711;DHT22;69465;51.630;6.570;2023-06-14T12:46:46;26.30;19.50
79711;DHT22;69465;51.630;6.570;2023-06-14T12:49:13;26.40;18.90
79711;DHT22;69465;51.630;6.570;2023-06-14T12:51:40;26.50;18.90
79711;DHT22;69465;51.630;6.570;2023-06-14T12:54:07;26.50;19.00
79711;DHT22;69465;51.630;6.570;2023-06-14T12:56:33;26.50;18.60
79711;DHT22;69465;51.630;6.570;2023-06-14T12:59:00;26.50;19.20
79711;DHT22;69465;51.630;6.570;2023-06-14T13:01:26;26.60;19.10
79711;DHT22;69465;51.630;6.570;2023-06-14T13:03:53;26.50;19.10
79711;DHT22;69465;51.630;6.570;2023-06-14T13:06:21;26.50;19.70
79711;DHT22;69465;51.630;6.570;2023-06-14T13:08:48;26.50;19.80
79711;DHT22;69465;51.630;6.570;2023-06-14T13:11:15;26.50;18.50
79711;DHT22;69465;51.630;6.570;2023-06-14T13:13:42;26.50;17.70
79711;DHT22;69465;51.630;6.570;2023-06-14T13:16:08;26.50;17.70
79711;DHT22;69465;51.630;6.570;2023-06-14T13:18:35;26.50;18.60
79711;DHT22;69465;51.630;6.570;2023-06-14T13:21:02;26.60;19.30
79711;DHT22;69465;51.630;6.570;2023-06-14T13:23:28;26.50;19.70
79711;DHT22;69465;51.630;6.570;2023-06-14T13:25:55;26.60;18.90
79711;DHT22;69465;51.630;6.570;2023-06-14T13:28:22;26.60;18.80
79711;DHT22;69465;51.630;6.570;2023-06-14T13:30:48;26.60;17.30
79711;DHT22;69465;51.630;6.570;2023-06-14T13:33:15;26.50;17.70
79711;DHT22;69465;51.630;6.570;2023-06-14T13:35:42;26.60;19.40
79711;DHT22;69465;51.630;6.570;2023-06-14T13:38:10;26.50;19.00
79711;DHT22;69465;51.630;6.570;2023-06-14T13:40:37;26.50;18.70
79711;DHT22;69465;51.630;6.570;2023-06-14T13:43:04;26.40;18.70
79711;DHT22;69465;51.630;6.570;2023-06-14T13:45:30;26.40;18.90
79711;DHT22;69465;51.630;6.570;2023-06-14T13:47:57;26.40;18.50
79711;DHT22;69465;51.630;6.570;2023-06-14T13:50:23;26.40;18.00
79711;DHT22;69465;51.630;6.570;2023-06-14T13:52:50;26.40;18.30
79711;DHT22;69465;51.630;6.570;2023-06-14T13:55:17;26.50;18.50
79711;DHT22;69465;51.630;6.570;2023-06-14T13:57:43;26.50;16.70
79711;DHT22;69465;51.630;6.570;2023-06-14T14:00:10;26.50;17.20
79711;DHT22;69465;51.630;6.570;2023-06-14T14:02:37;26.40;17.10
79711;DHT22;69465;51.630;6.570;2023-06-14T14:05:04;26.40;18.10
79711;DHT22;69465;51.630;6.570;2023-06-14T14:07:30;26.40;18.00
79711;DHT22;69465;51.630;6.570;2023-06-14T14:09:57;26.30;17.60
79711;DHT22;69465;51.630;6.570;2023-06-14T14:12:23;26.30;17.60
79711;DHT22;69465;51.630;6.570;2023-06-14T14:14:50;26.30;17.60
79711;DHT22;69465;51.630;6.570;2023-06-14T14:17:17;26.20;17.70
79711;DHT22;69465;51.630;6.570;2023-06-14T14:19:44;26.30;19.30
79711;DHT22;69465;51.630;6.570;2023-06-14T14:22:10;26.30;17.90
79711;DHT22;69465;51.630;6.570;2023-06-14T14:24:37;26.30;17.60
79711;DHT22;69465;51.630;6.570;2023-06-14T14:27:03;26.30;18.10
79711;DHT22;69465;51.630;6.570;2023-06-14T14:29:30;26.20;18.20
79711;DHT22;69465;51.630;6.570;2023-06-14T14:31:57;26.20;18.80
79711;DHT22;69465;51.630;6.570;2023-06-14T14:34:26;26.30;18.70
79711;DHT22;69465;51.630;6.570;2023-06-14T14:36:53;26.40;19.90
79711;DHT22;69465;51.630;6.570;2023-06-14T14:39:20;26.40;18.70
79711;DHT22;69465;51.630;6.570;2023-06-14T14:41:47;26.30;18.60
79711;DHT22;69465;51.630;6.570;2023-06-14T14:44:14;26.40;18.00
79711;DHT22;69465;51.630;6.570;2023-06-14T14:46:40;26.40;18.90
79711;DHT22;69465;51.630;6.570;2023-06-14T14:49:07;26.40;17.80
79711;DHT22;69465;51.630;6.570;2023-06-14T14:51:34;26.50;17.80
79711;DHT22;69465;51.630;6.570;2023-06-14T14:54:00;26.50;19.60
79711;DHT22;69465;51.630;6.570;2023-06-14T14:56:27;26.70;19.10
79711;DHT22;69465;51.630;6.570;2023-06-14T14:58:54;26.70;18.20
79711;DHT22;69465;51.630;6.570;2023-06-14T15:01:21;26.60;18.50
79711;DHT22;69465;51.630;6.570;2023-06-14T15:03:48;26.50;18.40
79711;DHT22;69465;51.630;6.570;2023-06-14T15:06:25;26.50;18.50
79711;DHT22;69465;51.630;6.570;2023-06-14T15:08:52;26.50;18.30
79711;DHT22;69465;51.630;6.570;2023-06-14T15:11:19;26.50;18.30
79711;DHT22;69465;51.630;6.570;2023-06-14T15:13:46;26.50;18.10
79711;DHT22;69465;51.630;6.570;2023-06-14T15:16:13;26.50;18.80
79711;DHT22;69465;51.630;6.570;2023-06-14T15:18:39;26.50;18.30
79711;DHT22;69465;51.630;6.570;2023-06-14T15:21:06;26.60;18.20
79711;DHT22;69465;51.630;6.570;2023-06-14T15:23:33;26.60;19.30
79711;DHT22;69465;51.630;6.570;2023-06-14T15:25:59;26.60;18.80
79711;DHT22;69465;51.630;6.570;2023-06-14T15:28:26;26.60;18.40
79711;DHT22;69465;51.630;6.570;2023-06-14T15:30:53;26.60;18.00
79711;DHT22;69465;51.630;6.570;2023-06-14T15:33:20;26.60;18.30
79711;DHT22;69465;51.630;6.570;2023-06-14T15:35:46;26.60;18.90
79711;DHT22;69465;51.630;6.570;2023-06-14T15:38:13;26.50;19.00
79711;DHT22;69465;51.630;6.570;2023-06-14T15:40:40;26.50;18.60
79711;DHT22;69465;51.630;6.570;2023-06-14T15:43:06;26.50;19.20
79711;DHT22;69465;51.630;6.570;2023-06-14T15:45:33;26.50;19.40
79711;DHT22;69465;51.630;6.570;2023-06-14T15:48:00;26.60;18.80